sensor_id;sensor_type;location;lat;lon;timestamp;temperature;humidity
13198;DHT22;6664;52.514;13.440;2024-01-30T00:02:26;2.60;1.00
13198;DHT22;6664;52.514;13.440;2024-01-30T00:05:12;2.60;1.00
13198;DHT22;6664;52.514;13.440;2024-01-30T00:07:58;2.60;1.00
13198;DHT22;6664;52.514;13.440;2024-01-30T00:10:47;2.50;1.00
13198;DHT22;6664;52.514;13.440;2024-01-30T00:13:32;2.50;1.00
13198;DHT22;6664;52.514;13.440;2024-01-30T00:16:22;2.50;1.00
13198;DHT22;6664;52.514;13.440;2024-01-30T00:19:09;2.60;1.00
13198;DHT22;6664;52.514;13.440;2024-01-30T00:21:55;2.50;1.00
13198;DHT22;6664;52.514;13.440;2024-01-30T00:24:40;2.50;1.00
13198;DHT22;6664;52.514;13.440;2024-01-30T00:27:26;2.40;1.00
13198;DHT22;6664;52.514;13.440;2024-01-30T00:30:17;2.50;1.00
13198;DHT22;6664;52.514;13.440;2024-01-30T00:33:04;2.60;1.00
13198;DHT22;6664;52.514;13.440;2024-01-30T00:35:49;2.60;1.00
13198;DHT22;6664;52.514;13.440;2024-01-30T00:38:35;2.70;1.00
13198;DHT22;6664;52.514;13.440;2024-01-30T00:41:21;2.50;1.00
13198;DHT22;6664;52.514;13.440;2024-01-30T00:44:07;2.70;1.00
13198;DHT22;6664;52.514;13.440;2024-01-30T00:46:53;2.60;1.00
13198;DHT22;6664;52.514;13.440;2024-01-30T00:49:38;2.50;1.00
13198;DHT22;6664;52.514;13.440;2024-01-30T00:52:26;2.50;1.00
13198;DHT22;6664;52.514;13.440;2024-01-30T00:55:12;2.40;1.00
13198;DHT22;6664;52.514;13.440;2024-01-30T00:57:58;2.40;1.00
13198;DHT22;6664;52.514;13.440;2024-01-30T01:00:46;2.30;1.00
13198;DHT22;6664;52.514;13.440;2024-01-30T01:03:32;2.30;1.00
13198;DHT22;6664;52.514;13.440;2024-01-30T01:06:22;2.30;1.00
13198;DHT22;6664;52.514;13.440;2024-01-30T01:09:07;2.30;1.00
13198;DHT22;6664;52.514;13.440;2024-01-30T01:11:55;2.40;1.00
13198;DHT22;6664;52.514;13.440;2024-01-30T01:14:41;2.40;1.00
13198;DHT22;6664;52.514;13.440;2024-01-30T01:17:27;2.30;1.00
13198;DHT22;6664;52.514;13.440;2024-01-30T01:20:12;2.30;1.00
13198;DHT22;6664;52.514;13.440;2024-01-30T01:23:00;2.20;1.00
13198;DHT22;6664;52.514;13.440;2024-01-30T01:25:45;2.20;1.00
13198;DHT22;6664;52.514;13.440;2024-01-30T01:28:31;2.20;1.00
13198;DHT22;6664;52.514;13.440;2024-01-30T01:31:17;2.20;1.00
13198;DHT22;6664;52.514;13.440;2024-01-30T01:34:04;2.20;1.00
13198;DHT22;6664;52.514;13.440;2024-01-30T01:36:50;2.20;1.00
13198;DHT22;6664;52.514;13.440;2024-01-30T01:39:36;2.10;1.00
13198;DHT22;6664;52.514;13.440;2024-01-30T01:42:21;2.20;1.00
13198;DHT22;6664;52.514;13.440;2024-01-30T01:45:08;2.30;1.00
13198;DHT22;6664;52.514;13.440;2024-01-30T01:47:55;2.20;1.00
13198;DHT22;6664;52.514;13.440;2024-01-30T01:50:42;2.10;1.00
13198;DHT22;6664;52.514;13.440;2024-01-30T01:53:31;2.20;1.00
13198;DHT22;6664;52.514;13.440;2024-01-30T01:56:21;2.20;1.00
13198;DHT22;6664;52.514;13.440;2024-01-30T01:59:08;2.10;1.00
13198;DHT22;6664;52.514;13.440;2024-01-30T02:01:56;2.00;1.00
13198;DHT22;6664;52.514;13.440;2024-01-30T02:04:38;2.00;1.00
13198;DHT22;6664;52.514;13.440;2024-01-30T02:07:24;2.00;1.00
13198;DHT22;6664;52.514;13.440;2024-01-30T02:10:09;2.10;1.00
13198;DHT22;6664;52.514;13.440;2024-01-30T02:12:58;2.10;1.00
13198;DHT22;6664;52.514;13.440;2024-01-30T02:15:43;2.20;1.00
13198;DHT22;6664;52.514;13.440;2024-01-30T02:18:30;2.20;1.00
13198;DHT22;6664;52.514;13.440;2024-01-30T02:21:16;2.20;1.00
13198;DHT22;6664;52.514;13.440;2024-01-30T02:24:03;2.30;1.00
13198;DHT22;6664;52.514;13.440;2024-01-30T02:26:48;2.20;1.00
13198;DHT22;6664;52.514;13.440;2024-01-30T02:29:34;2.30;1.00
13198;DHT22;6664;52.514;13.440;2024-01-30T02:32:19;2.40;1.00
13198;DHT22;6664;52.514;13.440;2024-01-30T02:35:08;2.40;1.00
13198;DHT22;6664;52.514;13.440;2024-01-30T02:37:54;2.40;1.00
13198;DHT22;6664;52.514;13.440;2024-01-30T02:40:40;2.40;1.00
13198;DHT22;6664;52.514;13.440;2024-01-30T02:43:25;2.50;1.00
13198;DHT22;6664;52.514;13.440;2024-01-30T02:46:13;2.50;1.00
13198;DHT22;6664;52.514;13.440;2024-01-30T02:48:59;2.40;1.00
13198;DHT22;6664;52.514;13.440;2024-01-30T02:51:45;2.40;1.00
13198;DHT22;6664;52.514;13.440;2024-01-30T02:54:30;2.50;1.00
13198;DHT22;6664;52.514;13.440;2024-01-30T02:57:16;2.40;1.00
13198;DHT22;6664;52.514;13.440;2024-01-30T03:00:01;2.40;1.00
13198;DHT22;6664;52.514;13.440;2024-01-30T03:02:48;2.40;1.00
13198;DHT22;6664;52.514;13.440;2024-01-30T03:05:35;2.30;1.00
13198;DHT22;6664;52.514;13.440;2024-01-30T03:08:21;2.10;1.00
13198;DHT22;6664;52.514;13.440;2024-01-30T03:11:09;2.10;1.00
13198;DHT22;6664;52.514;13.440;2024-01-30T03:13:54;2.00;1.00
13198;DHT22;6664;52.514;13.440;2024-01-30T03:16:40;2.00;1.00
13198;DHT22;6664;52.514;13.440;2024-01-30T03:19:25;1.90;1.00
13198;DHT22;6664;52.514;13.440;2024-01-30T03:22:13;1.90;1.90
13198;DHT22;6664;52.514;13.440;2024-01-30T03:24:59;1.90;1.80
13198;DHT22;6664;52.514;13.440;2024-01-30T03:27:45;1.80;2.70
13198;DHT22;6664;52.514;13.440;2024-01-30T03:30:34;1.80;3.50
13198;DHT22;6664;52.514;13.440;2024-01-30T03:33:20;1.90;4.10
13198;DHT22;6664;52.514;13.440;2024-01-30T03:36:07;1.90;4.10
13198;DHT22;6664;52.514;13.440;2024-01-30T03:38:53;2.00;4.20
13198;DHT22;6664;52.514;13.440;2024-01-30T03:41:42;2.00;4.10
13198;DHT22;6664;52.514;13.440;2024-01-30T03:44:28;1.90;3.90
13198;DHT22;6664;52.514;13.440;2024-01-30T03:47:19;1.90;4.50
13198;DHT22;6664;52.514;13.440;2024-01-30T03:50:05;1.80;4.90
13198;DHT22;6664;52.514;13.440;2024-01-30T03:52:51;1.80;4.90
13198;DHT22;6664;52.514;13.440;2024-01-30T03:55:37;1.80;5.70
13198;DHT22;6664;52.514;13.440;2024-01-30T03:58:27;2.00;5.90
13198;DHT22;6664;52.514;13.440;2024-01-30T04:01:15;1.90;5.30
13198;DHT22;6664;52.514;13.440;2024-01-30T04:04:01;1.80;5.80
13198;DHT22;6664;52.514;13.440;2024-01-30T04:06:47;1.80;6.40
13198;DHT22;6664;52.514;13.440;2024-01-30T04:09:33;1.80;6.80
13198;DHT22;6664;52.514;13.440;2024-01-30T04:12:18;1.80;7.60
13198;DHT22;6664;52.514;13.440;2024-01-30T04:15:04;1.80;7.50
13198;DHT22;6664;52.514;13.440;2024-01-30T04:17:57;1.70;7.70
13198;DHT22;6664;52.514;13.440;2024-01-30T04:20:45;1.90;8.60
13198;DHT22;6664;52.514;13.440;2024-01-30T04:23:30;1.80;7.90
13198;DHT22;6664;52.514;13.440;2024-01-30T04:26:16;1.80;8.30
13198;DHT22;6664;52.514;13.440;2024-01-30T04:29:04;1.80;8.60
13198;DHT22;6664;52.514;13.440;2024-01-30T04:31:50;1.80;8.70
13198;DHT22;6664;52.514;13.440;2024-01-30T04:34:36;1.80;8.70
13198;DHT22;6664;52.514;13.440;2024-01-30T04:37:23;1.80;9.40
13198;DHT22;6664;52.514;13.440;2024-01-30T04:40:09;1.80;9.60
13198;DHT22;6664;52.514;13.440;2024-01-30T04:42:56;1.80;10.20
13198;DHT22;6664;52.514;13.440;2024-01-30T04:45:41;1.90;10.00
13198;DHT22;6664;52.514;13.440;2024-01-30T04:48:27;1.80;10.20
13198;DHT22;6664;52.514;13.440;2024-01-30T04:51:12;1.80;10.70
13198;DHT22;6664;52.514;13.440;2024-01-30T04:53:58;1.80;11.00
13198;DHT22;6664;52.514;13.440;2024-01-30T04:56:48;1.80;10.90
13198;DHT22;6664;52.514;13.440;2024-01-30T04:59:39;1.80;10.70
13198;DHT22;6664;52.514;13.440;2024-01-30T05:02:25;1.70;10.70
13198;DHT22;6664;52.514;13.440;2024-01-30T05:05:10;1.80;11.00
13198;DHT22;6664;52.514;13.440;2024-01-30T05:07:56;1.80;11.20
13198;DHT22;6664;52.514;13.440;2024-01-30T05:10:41;1.70;11.60
13198;DHT22;6664;52.514;13.440;2024-01-30T05:13:30;1.70;11.70
13198;DHT22;6664;52.514;13.440;2024-01-30T05:16:16;1.70;11.90
13198;DHT22;6664;52.514;13.440;2024-01-30T05:19:01;1.80;12.70
13198;DHT22;6664;52.514;13.440;2024-01-30T05:21:50;1.80;11.90
13198;DHT22;6664;52.514;13.440;2024-01-30T05:24:36;1.80;12.20
13198;DHT22;6664;52.514;13.440;2024-01-30T05:27:22;1.70;12.50
13198;DHT22;6664;52.514;13.440;2024-01-30T05:30:10;1.70;13.00
13198;DHT22;6664;52.514;13.440;2024-01-30T05:32:55;1.70;12.90
13198;DHT22;6664;52.514;13.440;2024-01-30T05:35:40;1.70;13.10
13198;DHT22;6664;52.514;13.440;2024-01-30T05:38:26;1.70;13.00
13198;DHT22;6664;52.514;13.440;2024-01-30T05:41:11;1.70;13.70
13198;DHT22;6664;52.514;13.440;2024-01-30T05:43:57;1.80;13.10
13198;DHT22;6664;52.514;13.440;2024-01-30T05:46:43;1.90;13.20
13198;DHT22;6664;52.514;13.440;2024-01-30T05:49:28;2.00;12.20
13198;DHT22;6664;52.514;13.440;2024-01-30T05:52:16;2.00;11.70
13198;DHT22;6664;52.514;13.440;2024-01-30T05:55:04;2.00;10.70
13198;DHT22;6664;52.514;13.440;2024-01-30T05:57:54;2.00;10.70
13198;DHT22;6664;52.514;13.440;2024-01-30T06:00:40;2.00;11.20
13198;DHT22;6664;52.514;13.440;2024-01-30T06:03:25;2.00;11.60
13198;DHT22;6664;52.514;13.440;2024-01-30T06:06:11;2.10;10.80
13198;DHT22;6664;52.514;13.440;2024-01-30T06:08:56;2.10;10.50
13198;DHT22;6664;52.514;13.440;2024-01-30T06:11:42;2.30;8.90
13198;DHT22;6664;52.514;13.440;2024-01-30T06:14:28;2.30;8.30
13198;DHT22;6664;52.514;13.440;2024-01-30T06:17:13;2.20;8.40
13198;DHT22;6664;52.514;13.440;2024-01-30T06:19:59;2.20;8.70
13198;DHT22;6664;52.514;13.440;2024-01-30T06:22:45;2.30;7.60
13198;DHT22;6664;52.514;13.440;2024-01-30T06:25:31;2.40;7.50
13198;DHT22;6664;52.514;13.440;2024-01-30T06:28:16;2.50;6.50
13198;DHT22;6664;52.514;13.440;2024-01-30T06:31:04;2.50;6.20
13198;DHT22;6664;52.514;13.440;2024-01-30T06:33:50;2.40;6.30
13198;DHT22;6664;52.514;13.440;2024-01-30T06:36:36;2.50;6.00
13198;DHT22;6664;52.514;13.440;2024-01-30T06:39:22;2.40;5.70
13198;DHT22;6664;52.514;13.440;2024-01-30T06:42:11;2.40;5.90
13198;DHT22;6664;52.514;13.440;2024-01-30T06:44:59;2.40;5.70
13198;DHT22;6664;52.514;13.440;2024-01-30T06:47:45;2.40;6.20
13198;DHT22;6664;52.514;13.440;2024-01-30T06:50:30;2.40;6.10
13198;DHT22;6664;52.514;13.440;2024-01-30T06:53:18;2.50;5.70
13198;DHT22;6664;52.514;13.440;2024-01-30T06:56:05;2.50;5.40
13198;DHT22;6664;52.514;13.440;2024-01-30T06:58:50;2.40;5.30
13198;DHT22;6664;52.514;13.440;2024-01-30T07:01:36;2.50;5.50
13198;DHT22;6664;52.514;13.440;2024-01-30T07:04:22;2.50;5.50
13198;DHT22;6664;52.514;13.440;2024-01-30T07:07:08;2.60;4.60
13198;DHT22;6664;52.514;13.440;2024-01-30T07:09:57;2.50;4.60
13198;DHT22;6664;52.514;13.440;2024-01-30T07:12:43;2.60;4.50
13198;DHT22;6664;52.514;13.440;2024-01-30T07:15:30;2.60;4.60
13198;DHT22;6664;52.514;13.440;2024-01-30T07:18:16;2.60;4.60
13198;DHT22;6664;52.514;13.440;2024-01-30T07:21:02;2.60;4.50
13198;DHT22;6664;52.514;13.440;2024-01-30T07:23:47;2.60;4.50
13198;DHT22;6664;52.514;13.440;2024-01-30T07:26:32;2.70;4.60
13198;DHT22;6664;52.514;13.440;2024-01-30T07:29:18;2.80;4.00
13198;DHT22;6664;52.514;13.440;2024-01-30T07:32:04;2.90;3.00
13198;DHT22;6664;52.514;13.440;2024-01-30T07:34:51;3.00;2.40
13198;DHT22;6664;52.514;13.440;2024-01-30T07:37:52;3.10;2.20
13198;DHT22;6664;52.514;13.440;2024-01-30T07:40:38;3.10;1.90
13198;DHT22;6664;52.514;13.440;2024-01-30T07:43:26;3.30;1.30
13198;DHT22;6664;52.514;13.440;2024-01-30T07:46:12;3.30;1.00
13198;DHT22;6664;52.514;13.440;2024-01-30T07:48:58;3.40;1.00
13198;DHT22;6664;52.514;13.440;2024-01-30T07:51:44;3.50;1.00
13198;DHT22;6664;52.514;13.440;2024-01-30T07:54:30;3.40;1.00
13198;DHT22;6664;52.514;13.440;2024-01-30T07:57:18;3.50;1.00
13198;DHT22;6664;52.514;13.440;2024-01-30T08:00:04;3.50;1.00
13198;DHT22;6664;52.514;13.440;2024-01-30T08:02:53;3.50;1.00
13198;DHT22;6664;52.514;13.440;2024-01-30T08:05:39;3.50;1.00
13198;DHT22;6664;52.514;13.440;2024-01-30T08:08:25;3.50;1.00
13198;DHT22;6664;52.514;13.440;2024-01-30T08:11:12;3.50;1.00
13198;DHT22;6664;52.514;13.440;2024-01-30T08:13:57;3.60;1.00
13198;DHT22;6664;52.514;13.440;2024-01-30T08:16:43;3.60;1.00
13198;DHT22;6664;52.514;13.440;2024-01-30T08:19:29;3.60;1.00
13198;DHT22;6664;52.514;13.440;2024-01-30T08:22:17;3.70;1.00
13198;DHT22;6664;52.514;13.440;2024-01-30T08:25:05;3.70;1.00
13198;DHT22;6664;52.514;13.440;2024-01-30T08:27:51;3.70;1.00
13198;DHT22;6664;52.514;13.440;2024-01-30T08:30:37;3.70;1.00
13198;DHT22;6664;52.514;13.440;2024-01-30T08:33:24;3.80;1.00
13198;DHT22;6664;52.514;13.440;2024-01-30T08:36:12;3.80;1.00
13198;DHT22;6664;52.514;13.440;2024-01-30T08:38:57;3.90;1.00
13198;DHT22;6664;52.514;13.440;2024-01-30T08:41:51;4.00;1.00
13198;DHT22;6664;52.514;13.440;2024-01-30T08:44:37;4.10;1.00
13198;DHT22;6664;52.514;13.440;2024-01-30T08:47:24;4.20;1.00
13198;DHT22;6664;52.514;13.440;2024-01-30T08:50:13;4.20;1.00
13198;DHT22;6664;52.514;13.440;2024-01-30T08:53:01;4.30;1.00
13198;DHT22;6664;52.514;13.440;2024-01-30T08:55:47;4.40;1.00
13198;DHT22;6664;52.514;13.440;2024-01-30T08:58:34;4.50;1.00
13198;DHT22;6664;52.514;13.440;2024-01-30T09:01:23;4.60;1.00
13198;DHT22;6664;52.514;13.440;2024-01-30T09:04:08;4.80;1.00
13198;DHT22;6664;52.514;13.440;2024-01-30T09:06:57;4.90;1.00
13198;DHT22;6664;52.514;13.440;2024-01-30T09:09:42;5.00;1.00
13198;DHT22;6664;52.514;13.440;2024-01-30T09:12:28;5.10;1.00
13198;DHT22;6664;52.514;13.440;2024-01-30T09:15:14;5.20;1.00
13198;DHT22;6664;52.514;13.440;2024-01-30T09:17:59;5.20;1.00
13198;DHT22;6664;52.514;13.440;2024-01-30T09:20:45;5.30;1.00
13198;DHT22;6664;52.514;13.440;2024-01-30T09:23:33;5.30;1.00
13198;DHT22;6664;52.514;13.440;2024-01-30T09:26:19;5.50;1.00
13198;DHT22;6664;52.514;13.440;2024-01-30T09:29:04;5.50;1.00
13198;DHT22;6664;52.514;13.440;2024-01-30T09:31:50;5.50;1.00
13198;DHT22;6664;52.514;13.440;2024-01-30T09:34:35;5.60;1.00
13198;DHT22;6664;52.514;13.440;2024-01-30T09:37:26;5.70;1.00
13198;DHT22;6664;52.514;13.440;2024-01-30T09:40:12;5.70;1.00
13198;DHT22;6664;52.514;13.440;2024-01-30T09:42:59;5.80;1.00
13198;DHT22;6664;52.514;13.440;2024-01-30T09:45:48;5.80;1.00
13198;DHT22;6664;52.514;13.440;2024-01-30T09:48:38;5.90;1.00
13198;DHT22;6664;52.514;13.440;2024-01-30T09:51:24;6.00;1.00
13198;DHT22;6664;52.514;13.440;2024-01-30T09:54:13;6.00;1.00
13198;DHT22;6664;52.514;13.440;2024-01-30T09:56:59;6.10;1.00
13198;DHT22;6664;52.514;13.440;2024-01-30T09:59:44;6.30;1.00
13198;DHT22;6664;52.514;13.440;2024-01-30T10:02:33;6.30;1.00
13198;DHT22;6664;52.514;13.440;2024-01-30T10:05:19;6.40;1.00
13198;DHT22;6664;52.514;13.440;2024-01-30T10:08:06;6.50;1.00
13198;DHT22;6664;52.514;13.440;2024-01-30T10:10:55;6.60;1.00
13198;DHT22;6664;52.514;13.440;2024-01-30T10:13:42;6.50;1.00
13198;DHT22;6664;52.514;13.440;2024-01-30T10:16:28;6.60;1.00
13198;DHT22;6664;52.514;13.440;2024-01-30T10:19:14;6.60;1.00
13198;DHT22;6664;52.514;13.440;2024-01-30T10:22:04;6.60;1.00
13198;DHT22;6664;52.514;13.440;2024-01-30T10:24:52;6.70;1.00
13198;DHT22;6664;52.514;13.440;2024-01-30T10:27:39;6.70;1.00
13198;DHT22;6664;52.514;13.440;2024-01-30T10:30:28;6.80;1.00
13198;DHT22;6664;52.514;13.440;2024-01-30T10:33:13;6.80;1.00
13198;DHT22;6664;52.514;13.440;2024-01-30T10:36:05;6.90;1.00
13198;DHT22;6664;52.514;13.440;2024-01-30T10:38:51;7.00;1.00
13198;DHT22;6664;52.514;13.440;2024-01-30T10:41:47;7.00;1.00
13198;DHT22;6664;52.514;13.440;2024-01-30T10:47:35;7.10;1.00
13198;DHT22;6664;52.514;13.440;2024-01-30T10:50:27;7.10;1.00
13198;DHT22;6664;52.514;13.440;2024-01-30T10:53:13;7.10;1.00
13198;DHT22;6664;52.514;13.440;2024-01-30T10:55:59;7.20;1.00
13198;DHT22;6664;52.514;13.440;2024-01-30T10:58:46;7.20;1.00
13198;DHT22;6664;52.514;13.440;2024-01-30T11:01:32;7.20;1.00
13198;DHT22;6664;52.514;13.440;2024-01-30T11:04:21;7.20;1.00
13198;DHT22;6664;52.514;13.440;2024-01-30T11:07:27;7.30;1.00
13198;DHT22;6664;52.514;13.440;2024-01-30T11:10:14;7.40;1.00
13198;DHT22;6664;52.514;13.440;2024-01-30T11:13:10;7.40;1.00
13198;DHT22;6664;52.514;13.440;2024-01-30T11:15:59;7.50;1.00
13198;DHT22;6664;52.514;13.440;2024-01-30T11:18:50;7.60;1.00
13198;DHT22;6664;52.514;13.440;2024-01-30T11:21:41;7.70;1.00
13198;DHT22;6664;52.514;13.440;2024-01-30T11:24:27;7.80;1.00
13198;DHT22;6664;52.514;13.440;2024-01-30T11:27:15;7.90;1.00
13198;DHT22;6664;52.514;13.440;2024-01-30T11:30:04;8.00;1.00
13198;DHT22;6664;52.514;13.440;2024-01-30T11:35:52;8.30;1.00
13198;DHT22;6664;52.514;13.440;2024-01-30T11:38:40;8.40;1.00
13198;DHT22;6664;52.514;13.440;2024-01-30T11:41:32;8.70;1.00
13198;DHT22;6664;52.514;13.440;2024-01-30T11:44:20;8.70;1.00
13198;DHT22;6664;52.514;13.440;2024-01-30T11:47:06;8.70;1.00
13198;DHT22;6664;52.514;13.440;2024-01-30T11:49:53;9.00;1.00
13198;DHT22;6664;52.514;13.440;2024-01-30T11:52:43;9.20;1.00
13198;DHT22;6664;52.514;13.440;2024-01-30T11:55:29;9.20;1.00
13198;DHT22;6664;52.514;13.440;2024-01-30T11:58:19;9.40;1.00
13198;DHT22;6664;52.514;13.440;2024-01-30T12:01:05;9.60;1.00
13198;DHT22;6664;52.514;13.440;2024-01-30T12:03:51;9.80;1.00
13198;DHT22;6664;52.514;13.440;2024-01-30T12:06:38;10.10;1.00
13198;DHT22;6664;52.514;13.440;2024-01-30T12:09:24;10.00;1.00
13198;DHT22;6664;52.514;13.440;2024-01-30T12:12:13;10.10;1.00
13198;DHT22;6664;52.514;13.440;2024-01-30T12:15:00;10.20;1.00
13198;DHT22;6664;52.514;13.440;2024-01-30T12:17:45;10.30;1.00
13198;DHT22;6664;52.514;13.440;2024-01-30T12:20:31;10.30;1.00
13198;DHT22;6664;52.514;13.440;2024-01-30T12:23:16;10.30;1.00
13198;DHT22;6664;52.514;13.440;2024-01-30T12:26:05;10.10;1.00
13198;DHT22;6664;52.514;13.440;2024-01-30T12:28:56;10.20;1.00
13198;DHT22;6664;52.514;13.440;2024-01-30T12:31:43;10.00;1.00
13198;DHT22;6664;52.514;13.440;2024-01-30T12:34:29;10.00;1.00
13198;DHT22;6664;52.514;13.440;2024-01-30T12:37:19;9.90;1.00
13198;DHT22;6664;52.514;13.440;2024-01-30T12:40:10;10.00;1.00
13198;DHT22;6664;52.514;13.440;2024-01-30T12:42:56;9.90;1.00
13198;DHT22;6664;52.514;13.440;2024-01-30T12:45:42;9.90;1.00
13198;DHT22;6664;52.514;13.440;2024-01-30T12:48:28;9.80;1.00
13198;DHT22;6664;52.514;13.440;2024-01-30T12:51:15;9.80;1.00
13198;DHT22;6664;52.514;13.440;2024-01-30T12:54:05;9.90;1.00
13198;DHT22;6664;52.514;13.440;2024-01-30T12:56:51;9.80;1.00
13198;DHT22;6664;52.514;13.440;2024-01-30T12:59:36;9.80;1.00
13198;DHT22;6664;52.514;13.440;2024-01-30T13:02:22;9.80;1.00
13198;DHT22;6664;52.514;13.440;2024-01-30T13:05:08;9.60;1.00
13198;DHT22;6664;52.514;13.440;2024-01-30T13:07:54;9.70;1.00
13198;DHT22;6664;52.514;13.440;2024-01-30T13:10:42;9.70;1.00
13198;DHT22;6664;52.514;13.440;2024-01-30T13:13:28;9.80;1.00
13198;DHT22;6664;52.514;13.440;2024-01-30T13:16:14;9.80;1.00
13198;DHT22;6664;52.514;13.440;2024-01-30T13:19:00;9.80;1.00
13198;DHT22;6664;52.514;13.440;2024-01-30T13:21:47;9.90;1.00
13198;DHT22;6664;52.514;13.440;2024-01-30T13:24:33;10.00;1.00
13198;DHT22;6664;52.514;13.440;2024-01-30T13:27:19;10.00;1.00
13198;DHT22;6664;52.514;13.440;2024-01-30T13:30:06;9.90;1.00
13198;DHT22;6664;52.514;13.440;2024-01-30T13:32:52;9.90;1.00
13198;DHT22;6664;52.514;13.440;2024-01-30T13:35:38;9.80;1.00
13198;DHT22;6664;52.514;13.440;2024-01-30T13:38:23;9.70;1.00
13198;DHT22;6664;52.514;13.440;2024-01-30T13:41:09;9.60;1.00
13198;DHT22;6664;52.514;13.440;2024-01-30T13:43:54;9.60;1.00
13198;DHT22;6664;52.514;13.440;2024-01-30T13:46:40;9.70;1.00
13198;DHT22;6664;52.514;13.440;2024-01-30T13:49:26;9.90;1.00
13198;DHT22;6664;52.514;13.440;2024-01-30T13:52:14;10.00;1.00
13198;DHT22;6664;52.514;13.440;2024-01-30T13:55:01;10.00;1.00
13198;DHT22;6664;52.514;13.440;2024-01-30T13:57:46;10.00;1.00
13198;DHT22;6664;52.514;13.440;2024-01-30T14:00:35;10.00;1.00
13198;DHT22;6664;52.514;13.440;2024-01-30T14:03:21;10.00;1.00
13198;DHT22;6664;52.514;13.440;2024-01-30T14:06:07;9.90;1.00
13198;DHT22;6664;52.514;13.440;2024-01-30T14:08:53;9.90;1.00
13198;DHT22;6664;52.514;13.440;2024-01-30T14:11:52;10.00;1.00
13198;DHT22;6664;52.514;13.440;2024-01-30T14:14:37;9.90;1.00
13198;DHT22;6664;52.514;13.440;2024-01-30T14:17:23;9.90;1.00
13198;DHT22;6664;52.514;13.440;2024-01-30T14:20:11;9.80;1.00
13198;DHT22;6664;52.514;13.440;2024-01-30T14:22:57;9.70;1.00
13198;DHT22;6664;52.514;13.440;2024-01-30T14:25:45;9.70;1.00
13198;DHT22;6664;52.514;13.440;2024-01-30T14:28:30;9.60;1.00
13198;DHT22;6664;52.514;13.440;2024-01-30T14:31:18;9.70;1.00
13198;DHT22;6664;52.514;13.440;2024-01-30T14:34:07;9.70;1.00
13198;DHT22;6664;52.514;13.440;2024-01-30T14:36:54;9.60;1.00
13198;DHT22;6664;52.514;13.440;2024-01-30T14:39:39;9.50;1.00
13198;DHT22;6664;52.514;13.440;2024-01-30T14:42:26;9.40;1.00
13198;DHT22;6664;52.514;13.440;2024-01-30T14:45:12;9.30;1.00
13198;DHT22;6664;52.514;13.440;2024-01-30T14:47:58;9.30;1.00
13198;DHT22;6664;52.514;13.440;2024-01-30T14:50:45;9.20;1.00
13198;DHT22;6664;52.514;13.440;2024-01-30T14:53:31;9.10;1.00
13198;DHT22;6664;52.514;13.440;2024-01-30T14:56:16;9.10;1.00
13198;DHT22;6664;52.514;13.440;2024-01-30T14:59:02;8.90;1.00
13198;DHT22;6664;52.514;13.440;2024-01-30T15:01:48;8.90;1.00
13198;DHT22;6664;52.514;13.440;2024-01-30T15:04:34;8.80;1.00
13198;DHT22;6664;52.514;13.440;2024-01-30T15:07:19;8.70;1.00
13198;DHT22;6664;52.514;13.440;2024-01-30T15:10:17;8.60;1.00
13198;DHT22;6664;52.514;13.440;2024-01-30T15:13:02;8.50;1.00
13198;DHT22;6664;52.514;13.440;2024-01-30T15:15:48;8.40;1.00
13198;DHT22;6664;52.514;13.440;2024-01-30T15:18:34;8.40;1.00
13198;DHT22;6664;52.514;13.440;2024-01-30T15:21:20;8.30;1.00
13198;DHT22;6664;52.514;13.440;2024-01-30T15:24:10;8.20;1.00
13198;DHT22;6664;52.514;13.440;2024-01-30T15:27:01;8.10;1.00
13198;DHT22;6664;52.514;13.440;2024-01-30T15:29:46;8.10;1.00
13198;DHT22;6664;52.514;13.440;2024-01-30T15:32:32;8.00;1.00
13198;DHT22;6664;52.514;13.440;2024-01-30T15:35:17;8.00;1.00
13198;DHT22;6664;52.514;13.440;2024-01-30T15:38:03;7.90;1.00
13198;DHT22;6664;52.514;13.440;2024-01-30T15:40:49;7.90;1.00
13198;DHT22;6664;52.514;13.440;2024-01-30T15:43:35;7.80;1.00
13198;DHT22;6664;52.514;13.440;2024-01-30T15:46:21;7.80;1.00
13198;DHT22;6664;52.514;13.440;2024-01-30T15:49:06;7.60;1.00
13198;DHT22;6664;52.514;13.440;2024-01-30T15:51:52;7.60;1.00
13198;DHT22;6664;52.514;13.440;2024-01-30T15:54:40;7.50;1.00
13198;DHT22;6664;52.514;13.440;2024-01-30T15:57:25;7.50;1.00
13198;DHT22;6664;52.514;13.440;2024-01-30T16:00:14;7.40;1.00
13198;DHT22;6664;52.514;13.440;2024-01-30T16:03:00;7.40;1.00
13198;DHT22;6664;52.514;13.440;2024-01-30T16:05:48;7.30;1.00
13198;DHT22;6664;52.514;13.440;2024-01-30T16:08:34;7.10;1.00
13198;DHT22;6664;52.514;13.440;2024-01-30T16:11:19;7.10;1.00
13198;DHT22;6664;52.514;13.440;2024-01-30T16:14:08;7.10;1.00
13198;DHT22;6664;52.514;13.440;2024-01-30T16:16:54;7.10;1.00
13198;DHT22;6664;52.514;13.440;2024-01-30T16:19:41;7.10;1.00
13198;DHT22;6664;52.514;13.440;2024-01-30T16:22:32;7.10;1.00
13198;DHT22;6664;52.514;13.440;2024-01-30T16:25:18;7.10;1.00
13198;DHT22;6664;52.514;13.440;2024-01-30T16:28:07;7.10;1.00
13198;DHT22;6664;52.514;13.440;2024-01-30T16:30:52;7.10;1.00
13198;DHT22;6664;52.514;13.440;2024-01-30T16:33:37;7.10;1.00
13198;DHT22;6664;52.514;13.440;2024-01-30T16:36:26;7.00;1.00
13198;DHT22;6664;52.514;13.440;2024-01-30T16:39:12;7.10;1.00
13198;DHT22;6664;52.514;13.440;2024-01-30T16:41:58;7.10;1.00
13198;DHT22;6664;52.514;13.440;2024-01-30T16:44:46;7.20;1.00
13198;DHT22;6664;52.514;13.440;2024-01-30T16:47:32;7.20;1.00
13198;DHT22;6664;52.514;13.440;2024-01-30T16:50:18;7.20;1.00
13198;DHT22;6664;52.514;13.440;2024-01-30T16:53:04;7.20;1.00
13198;DHT22;6664;52.514;13.440;2024-01-30T16:55:49;7.30;1.00
13198;DHT22;6664;52.514;13.440;2024-01-30T16:58:35;7.20;1.00
13198;DHT22;6664;52.514;13.440;2024-01-30T17:01:21;7.20;1.00
13198;DHT22;6664;52.514;13.440;2024-01-30T17:04:07;7.30;1.00
13198;DHT22;6664;52.514;13.440;2024-01-30T17:06:53;7.20;1.00
13198;DHT22;6664;52.514;13.440;2024-01-30T17:09:39;7.30;1.00
13198;DHT22;6664;52.514;13.440;2024-01-30T17:12:25;7.30;1.00
13198;DHT22;6664;52.514;13.440;2024-01-30T17:15:11;7.30;1.00
13198;DHT22;6664;52.514;13.440;2024-01-30T17:17:56;7.30;1.00
13198;DHT22;6664;52.514;13.440;2024-01-30T17:20:42;7.30;1.00
13198;DHT22;6664;52.514;13.440;2024-01-30T17:23:27;7.30;1.00
13198;DHT22;6664;52.514;13.440;2024-01-30T17:26:13;7.30;1.00
13198;DHT22;6664;52.514;13.440;2024-01-30T17:28:59;7.40;1.00
13198;DHT22;6664;52.514;13.440;2024-01-30T17:31:45;7.30;1.00
13198;DHT22;6664;52.514;13.440;2024-01-30T17:34:30;7.30;1.00
13198;DHT22;6664;52.514;13.440;2024-01-30T17:37:16;7.30;1.00
13198;DHT22;6664;52.514;13.440;2024-01-30T17:40:01;7.30;1.00
13198;DHT22;6664;52.514;13.440;2024-01-30T17:42:48;7.30;1.00
13198;DHT22;6664;52.514;13.440;2024-01-30T17:45:34;7.30;1.00
13198;DHT22;6664;52.514;13.440;2024-01-30T17:48:22;7.30;1.00
13198;DHT22;6664;52.514;13.440;2024-01-30T17:51:08;7.30;1.00
13198;DHT22;6664;52.514;13.440;2024-01-30T17:53:54;7.40;1.00
13198;DHT22;6664;52.514;13.440;2024-01-30T17:56:40;7.30;1.00
13198;DHT22;6664;52.514;13.440;2024-01-30T17:59:26;7.30;1.00
13198;DHT22;6664;52.514;13.440;2024-01-30T18:02:14;7.30;1.00
13198;DHT22;6664;52.514;13.440;2024-01-30T18:05:02;7.40;1.00
13198;DHT22;6664;52.514;13.440;2024-01-30T18:07:50;7.40;1.00
13198;DHT22;6664;52.514;13.440;2024-01-30T18:10:35;7.50;1.00
13198;DHT22;6664;52.514;13.440;2024-01-30T18:13:22;7.50;1.00